Aérodrome :
LOGIN :

S'inscrire | Disclaimer

   EN    FR    IT 

 










Légende :    VFR   VFR Marginal   IFR   IFR Intensif   IFR Très Intensif
Visi : 
Plafond : 
>= 8 km
>= 3000ft
5 à 8 km
1000 à 3000 ft
1500m à 5 km
500 à 1000 ft
800 à 1500m
200 à 500 ft
< 800m
< 200 ft
Symboles :   Orages  Brouillard  Fortes neiges  Fortes précipitations  Vent > 20 kt
SIGMETs :   Divers  Orages  Givrage  Turbulence  Onde Orograph.  Cendres Volcan.







- Altitude de l'aérodrome : 302 ft
- Voir les cartes d'approche


LFPM - Melun Villaroche

DERNIER METAR :
  • 171500Z AUTO 22013KT 9999 SCT028 BKN042 OVC048 24/18 Q1017

METARs EXPIRÉS :
  • 171430Z AUTO 22011KT 9999 SCT027 BKN033 BKN041 24/18 Q1017
  • 171400Z AUTO 21012KT 9999 BKN028 BKN038 BKN045 23/18 Q1017
  • 171330Z AUTO 21010KT 9999 BKN025 OVC040 22/18 Q1017
  • 171300Z AUTO 21013KT 9999 OVC022 22/18 Q1018
  • 171230Z AUTO 23012KT 9999 -RA BKN021 OVC028 22/18 Q1018

Prévision TAF périmée.
ATIS : +33 1 64 14 28 44
Pas de NOTAMs connus pour ce terrain.



MET'MAP, la Météo Aéronautique d'un coup d'oeil ! - Copyright ORBIFLY Décembre 2007 - Disclaimer

ORBIFLY MET'MAP TEAM :

Programmation & Développement : Alexandra Zaïnal
Conception & Développement : Baudouin d'Aumeries
Co-Programmation & Développement : Marc-Olivier Méhu
Soutien technique & logistique : Manuel Goepfert

Contact : metmap@orbifly.com




SOURCES & CREDITS :

   NOAA